Yuanping, China
Current Conditions -  °F | °C
As of 6:00 PM on Thursday 29 Jan 2015 (Local Time) from ZBYN Reporting Station
Clear Clear  
Wind Chill: 21°   Ceiling: Unl
Heat Index: 27°   Visibility: 6mi
Dew Point: 10°   Wind: 4mph
Humidity: 51%   Direction: 350°N
Pressure: 30.3"   Gusts: NA
Location:  38.73°N, 112.72°E
Report Text: ZBYN 291000Z 35002MPS CAVOK M03/M12 Q1026 NOSIG
Loading
Personal Weather Stations






























Interactive Weather Map New forecast layout! Learn more

10-Day Weather Forecast

Advertisements
Track Severe Weather on mobile